sensor_id;sensor_type;location;lat;lon;timestamp;pressure;altitude;pressure_sealevel;temperature;humidity
43711;BME280;29309;42.682;23.372;2022-11-20T00:00:57;94479.94;;;14.19;80.27
43711;BME280;29309;42.682;23.372;2022-11-20T00:03:22;94464.81;;;14.28;79.98
43711;BME280;29309;42.682;23.372;2022-11-20T00:05:48;94476.59;;;14.25;79.79
43711;BME280;29309;42.682;23.372;2022-11-20T00:08:14;94499.72;;;14.29;79.29
43711;BME280;29309;42.682;23.372;2022-11-20T00:10:40;94497.59;;;14.28;78.96
43711;BME280;29309;42.682;23.372;2022-11-20T00:13:06;94488.75;;;14.38;79.20
43711;BME280;29309;42.682;23.372;2022-11-20T00:15:32;94497.22;;;14.40;79.19
43711;BME280;29309;42.682;23.372;2022-11-20T00:17:57;94497.00;;;14.34;79.32
43711;BME280;29309;42.682;23.372;2022-11-20T00:20:22;94482.84;;;14.25;79.57
43711;BME280;29309;42.682;23.372;2022-11-20T00:22:49;94485.25;;;14.37;80.05
43711;BME280;29309;42.682;23.372;2022-11-20T00:25:15;94499.28;;;14.39;79.49
43711;BME280;29309;42.682;23.372;2022-11-20T00:27:40;94475.53;;;14.38;78.96
43711;BME280;29309;42.682;23.372;2022-11-20T00:30:06;94465.72;;;14.37;78.67
43711;BME280;29309;42.682;23.372;2022-11-20T00:32:32;94497.09;;;14.36;78.83
43711;BME280;29309;42.682;23.372;2022-11-20T00:34:57;94473.25;;;14.32;79.16
43711;BME280;29309;42.682;23.372;2022-11-20T00:37:22;94453.84;;;14.37;78.57
43711;BME280;29309;42.682;23.372;2022-11-20T00:39:48;94474.09;;;14.37;79.04
43711;BME280;29309;42.682;23.372;2022-11-20T00:42:13;94480.38;;;14.38;79.39
43711;BME280;29309;42.682;23.372;2022-11-20T00:44:39;94467.84;;;14.39;78.56
43711;BME280;29309;42.682;23.372;2022-11-20T00:47:04;94496.88;;;14.55;75.75
43711;BME280;29309;42.682;23.372;2022-11-20T00:49:30;94475.41;;;14.64;73.74
43711;BME280;29309;42.682;23.372;2022-11-20T00:51:55;94478.63;;;14.82;72.02
43711;BME280;29309;42.682;23.372;2022-11-20T00:54:21;94464.88;;;14.94;73.16
43711;BME280;29309;42.682;23.372;2022-11-20T00:56:46;94488.50;;;14.87;72.83
43711;BME280;29309;42.682;23.372;2022-11-20T00:59:11;94511.84;;;15.00;70.75
43711;BME280;29309;42.682;23.372;2022-11-20T01:01:37;94485.00;;;15.18;70.73
43711;BME280;29309;42.682;23.372;2022-11-20T01:04:03;94448.59;;;15.16;71.17
43711;BME280;29309;42.682;23.372;2022-11-20T01:06:34;94482.81;;;15.15;70.97
43711;BME280;29309;42.682;23.372;2022-11-20T01:09:07;94479.47;;;15.22;70.25
43711;BME280;29309;42.682;23.372;2022-11-20T01:11:35;94477.47;;;15.27;69.41
43711;BME280;29309;42.682;23.372;2022-11-20T01:14:05;94458.09;;;15.37;67.50
43711;BME280;29309;42.682;23.372;2022-11-20T01:16:33;94461.72;;;15.44;67.75
43711;BME280;29309;42.682;23.372;2022-11-20T01:19:02;94481.38;;;15.48;67.28
43711;BME280;29309;42.682;23.372;2022-11-20T01:21:34;94453.00;;;15.63;66.81
43711;BME280;29309;42.682;23.372;2022-11-20T01:24:02;94449.63;;;15.69;64.82
43711;BME280;29309;42.682;23.372;2022-11-20T01:26:33;94440.94;;;15.91;62.65
43711;BME280;29309;42.682;23.372;2022-11-20T01:28:59;94433.50;;;16.07;61.94
43711;BME280;29309;42.682;23.372;2022-11-20T01:31:30;94439.38;;;16.23;61.28
43711;BME280;29309;42.682;23.372;2022-11-20T01:33:58;94441.56;;;16.29;61.77
43711;BME280;29309;42.682;23.372;2022-11-20T01:36:26;94420.53;;;16.28;62.42
43711;BME280;29309;42.682;23.372;2022-11-20T01:38:54;94431.72;;;16.28;63.37
43711;BME280;29309;42.682;23.372;2022-11-20T01:41:20;94431.63;;;16.22;63.39
43711;BME280;29309;42.682;23.372;2022-11-20T01:44:05;94430.19;;;16.19;63.77
43711;BME280;29309;42.682;23.372;2022-11-20T01:46:32;94437.16;;;16.16;64.20
43711;BME280;29309;42.682;23.372;2022-11-20T01:49:11;94437.00;;;16.08;64.94
43711;BME280;29309;42.682;23.372;2022-11-20T01:51:45;94427.59;;;15.89;66.38
43711;BME280;29309;42.682;23.372;2022-11-20T01:54:21;94409.44;;;15.92;63.70
43711;BME280;29309;42.682;23.372;2022-11-20T01:56:51;94417.97;;;15.98;62.84
43711;BME280;29309;42.682;23.372;2022-11-20T01:59:20;94423.69;;;16.06;61.72
43711;BME280;29309;42.682;23.372;2022-11-20T02:01:47;94407.84;;;16.23;60.62
43711;BME280;29309;42.682;23.372;2022-11-20T02:04:13;94419.13;;;16.27;59.96
43711;BME280;29309;42.682;23.372;2022-11-20T02:06:44;94429.69;;;16.31;60.57
43711;BME280;29309;42.682;23.372;2022-11-20T02:09:11;94435.53;;;16.47;59.68
43711;BME280;29309;42.682;23.372;2022-11-20T02:11:37;94423.16;;;16.62;59.08
43711;BME280;29309;42.682;23.372;2022-11-20T02:14:02;94412.66;;;16.62;58.95
43711;BME280;29309;42.682;23.372;2022-11-20T02:16:31;94438.50;;;16.57;60.11
43711;BME280;29309;42.682;23.372;2022-11-20T02:19:00;94434.31;;;16.58;60.38
43711;BME280;29309;42.682;23.372;2022-11-20T02:21:33;94444.75;;;16.55;60.34
43711;BME280;29309;42.682;23.372;2022-11-20T02:24:14;94435.03;;;16.60;59.95
43711;BME280;29309;42.682;23.372;2022-11-20T02:26:53;94428.78;;;16.64;57.77
43711;BME280;29309;42.682;23.372;2022-11-20T02:29:26;94442.25;;;16.73;58.54
43711;BME280;29309;42.682;23.372;2022-11-20T02:31:54;94404.50;;;16.81;56.73
43711;BME280;29309;42.682;23.372;2022-11-20T02:34:20;94436.78;;;16.84;57.77
43711;BME280;29309;42.682;23.372;2022-11-20T02:36:46;94447.31;;;16.85;57.24
43711;BME280;29309;42.682;23.372;2022-11-20T02:39:13;94455.22;;;17.01;57.90
43711;BME280;29309;42.682;23.372;2022-11-20T02:41:42;94436.91;;;16.92;58.02
43711;BME280;29309;42.682;23.372;2022-11-20T02:44:08;94459.22;;;16.84;58.61
43711;BME280;29309;42.682;23.372;2022-11-20T02:46:33;94453.59;;;16.82;58.52
43711;BME280;29309;42.682;23.372;2022-11-20T02:49:01;94459.88;;;16.82;57.70
43711;BME280;29309;42.682;23.372;2022-11-20T02:51:26;94471.16;;;16.86;57.52
43711;BME280;29309;42.682;23.372;2022-11-20T02:53:52;94457.41;;;17.06;55.93
43711;BME280;29309;42.682;23.372;2022-11-20T02:56:17;94470.03;;;17.07;56.46
43711;BME280;29309;42.682;23.372;2022-11-20T02:58:43;94471.50;;;17.10;55.67
43711;BME280;29309;42.682;23.372;2022-11-20T03:01:08;94467.47;;;17.26;55.34
43711;BME280;29309;42.682;23.372;2022-11-20T03:03:34;94480.22;;;17.33;55.59
43711;BME280;29309;42.682;23.372;2022-11-20T03:05:59;94488.09;;;17.48;55.15
43711;BME280;29309;42.682;23.372;2022-11-20T03:08:25;94491.59;;;17.47;54.97
43711;BME280;29309;42.682;23.372;2022-11-20T03:10:51;94493.06;;;17.52;55.34
43711;BME280;29309;42.682;23.372;2022-11-20T03:13:16;94495.91;;;17.56;55.51
43711;BME280;29309;42.682;23.372;2022-11-20T03:15:42;94495.31;;;17.61;54.75
43711;BME280;29309;42.682;23.372;2022-11-20T03:18:07;94504.50;;;17.68;55.01
43711;BME280;29309;42.682;23.372;2022-11-20T03:20:33;94498.91;;;17.70;54.93
43711;BME280;29309;42.682;23.372;2022-11-20T03:22:59;94506.66;;;17.72;54.86
43711;BME280;29309;42.682;23.372;2022-11-20T03:25:25;94511.56;;;17.73;54.63
43711;BME280;29309;42.682;23.372;2022-11-20T03:27:50;94504.56;;;17.76;54.13
43711;BME280;29309;42.682;23.372;2022-11-20T03:30:16;94522.84;;;17.75;54.12
43711;BME280;29309;42.682;23.372;2022-11-20T03:32:42;94500.38;;;17.77;55.18
43711;BME280;29309;42.682;23.372;2022-11-20T03:35:07;94515.03;;;17.69;54.95
43711;BME280;29309;42.682;23.372;2022-11-20T03:37:33;94510.16;;;17.72;54.69
43711;BME280;29309;42.682;23.372;2022-11-20T03:39:58;94511.50;;;17.69;55.39
43711;BME280;29309;42.682;23.372;2022-11-20T03:42:24;94526.94;;;17.66;55.50
43711;BME280;29309;42.682;23.372;2022-11-20T03:45:17;94517.13;;;17.69;54.80
43711;BME280;29309;42.682;23.372;2022-11-20T03:47:43;94521.97;;;17.62;55.16
43711;BME280;29309;42.682;23.372;2022-11-20T03:50:10;94526.16;;;17.59;55.29
43711;BME280;29309;42.682;23.372;2022-11-20T03:52:37;94521.22;;;17.58;55.26
43711;BME280;29309;42.682;23.372;2022-11-20T03:55:04;94514.22;;;17.59;54.96
43711;BME280;29309;42.682;23.372;2022-11-20T03:57:30;94514.19;;;17.57;54.82
43711;BME280;29309;42.682;23.372;2022-11-20T03:59:55;94507.94;;;17.62;54.91
43711;BME280;29309;42.682;23.372;2022-11-20T04:02:20;94510.03;;;17.62;54.57
43711;BME280;29309;42.682;23.372;2022-11-20T04:04:46;94496.09;;;17.68;54.16
43711;BME280;29309;42.682;23.372;2022-11-20T04:07:12;94507.44;;;17.80;53.77
43711;BME280;29309;42.682;23.372;2022-11-20T04:09:37;94515.84;;;17.78;54.05
43711;BME280;29309;42.682;23.372;2022-11-20T04:12:03;94520.75;;;17.78;54.47
43711;BME280;29309;42.682;23.372;2022-11-20T04:14:28;94515.13;;;17.76;54.43
43711;BME280;29309;42.682;23.372;2022-11-20T04:16:53;94515.09;;;17.74;54.64
43711;BME280;29309;42.682;23.372;2022-11-20T04:19:19;94514.25;;;17.63;55.21
43711;BME280;29309;42.682;23.372;2022-11-20T04:21:44;94528.28;;;17.61;54.96
43711;BME280;29309;42.682;23.372;2022-11-20T04:24:10;94528.25;;;17.59;54.94
43711;BME280;29309;42.682;23.372;2022-11-20T04:26:37;94527.56;;;17.60;54.83
43711;BME280;29309;42.682;23.372;2022-11-20T04:29:03;94521.91;;;17.56;54.55
43711;BME280;29309;42.682;23.372;2022-11-20T04:31:30;94528.25;;;17.59;54.28
43711;BME280;29309;42.682;23.372;2022-11-20T04:34:00;94531.75;;;17.57;55.63
43711;BME280;29309;42.682;23.372;2022-11-20T04:36:26;94523.97;;;17.54;54.37
43711;BME280;29309;42.682;23.372;2022-11-20T04:38:54;94522.63;;;17.57;54.99
43711;BME280;29309;42.682;23.372;2022-11-20T04:41:22;94537.38;;;17.59;54.68
43711;BME280;29309;42.682;23.372;2022-11-20T04:43:59;94542.25;;;17.57;55.28
43711;BME280;29309;42.682;23.372;2022-11-20T04:46:27;94523.97;;;17.56;55.05
43711;BME280;29309;42.682;23.372;2022-11-20T04:48:53;94522.69;;;17.63;54.94
43711;BME280;29309;42.682;23.372;2022-11-20T04:51:19;94514.31;;;17.65;54.90
43711;BME280;29309;42.682;23.372;2022-11-20T04:53:44;94512.84;;;17.62;54.76
43711;BME280;29309;42.682;23.372;2022-11-20T04:56:11;94504.41;;;17.58;55.26
43711;BME280;29309;42.682;23.372;2022-11-20T04:58:38;94515.53;;;17.54;55.29
43711;BME280;29309;42.682;23.372;2022-11-20T05:03:30;94505.66;;;17.51;55.48
43711;BME280;29309;42.682;23.372;2022-11-20T05:05:56;94497.22;;;17.49;55.63
43711;BME280;29309;42.682;23.372;2022-11-20T05:08:21;94496.56;;;17.50;55.83
43711;BME280;29309;42.682;23.372;2022-11-20T05:10:47;94495.06;;;17.45;55.75
43711;BME280;29309;42.682;23.372;2022-11-20T05:13:12;94500.03;;;17.47;55.54
43711;BME280;29309;42.682;23.372;2022-11-20T05:15:37;94492.28;;;17.45;55.69
43711;BME280;29309;42.682;23.372;2022-11-20T05:18:03;94490.19;;;17.46;56.09
43711;BME280;29309;42.682;23.372;2022-11-20T05:20:28;94499.97;;;17.43;55.93
43711;BME280;29309;42.682;23.372;2022-11-20T05:22:56;94488.75;;;17.43;56.76
43711;BME280;29309;42.682;23.372;2022-11-20T05:25:22;94484.50;;;17.40;57.01
43711;BME280;29309;42.682;23.372;2022-11-20T05:27:48;94467.56;;;17.34;58.30
43711;BME280;29309;42.682;23.372;2022-11-20T05:30:13;94468.13;;;17.22;59.88
43711;BME280;29309;42.682;23.372;2022-11-20T05:32:39;94471.50;;;17.12;60.32
43711;BME280;29309;42.682;23.372;2022-11-20T05:35:05;94472.13;;;17.05;62.14
43711;BME280;29309;42.682;23.372;2022-11-20T05:37:30;94497.16;;;16.91;63.04
43711;BME280;29309;42.682;23.372;2022-11-20T05:39:55;94492.84;;;16.82;63.61
43711;BME280;29309;42.682;23.372;2022-11-20T05:42:21;94501.84;;;16.76;63.84
43711;BME280;29309;42.682;23.372;2022-11-20T05:45:02;94494.78;;;16.73;64.53
43711;BME280;29309;42.682;23.372;2022-11-20T05:47:32;94486.97;;;16.65;64.38
43711;BME280;29309;42.682;23.372;2022-11-20T05:49:58;94477.84;;;16.63;64.29
43711;BME280;29309;42.682;23.372;2022-11-20T05:52:24;94486.91;;;16.61;64.68
43711;BME280;29309;42.682;23.372;2022-11-20T05:54:49;94478.44;;;16.57;64.30
43711;BME280;29309;42.682;23.372;2022-11-20T05:57:15;94491.72;;;16.57;64.09
43711;BME280;29309;42.682;23.372;2022-11-20T05:59:41;94502.34;;;16.62;63.78
43711;BME280;29309;42.682;23.372;2022-11-20T06:02:07;94510.03;;;16.62;63.69
43711;BME280;29309;42.682;23.372;2022-11-20T06:04:32;94504.50;;;16.66;62.90
43711;BME280;29309;42.682;23.372;2022-11-20T06:06:57;94494.72;;;16.69;62.94
43711;BME280;29309;42.682;23.372;2022-11-20T06:09:23;94487.75;;;16.70;62.43
43711;BME280;29309;42.682;23.372;2022-11-20T06:11:48;94514.44;;;16.75;62.06
43711;BME280;29309;42.682;23.372;2022-11-20T06:14:14;94517.28;;;16.77;62.50
43711;BME280;29309;42.682;23.372;2022-11-20T06:16:39;94517.28;;;16.77;62.25
43711;BME280;29309;42.682;23.372;2022-11-20T06:19:04;94510.97;;;16.79;62.46
43711;BME280;29309;42.682;23.372;2022-11-20T06:21:30;94510.31;;;16.80;61.65
43711;BME280;29309;42.682;23.372;2022-11-20T06:23:58;94508.91;;;16.79;61.84
43711;BME280;29309;42.682;23.372;2022-11-20T06:26:26;94508.28;;;16.85;61.75
43711;BME280;29309;42.682;23.372;2022-11-20T06:28:53;94520.88;;;16.84;61.20
43711;BME280;29309;42.682;23.372;2022-11-20T06:31:21;94519.50;;;16.85;61.38
43711;BME280;29309;42.682;23.372;2022-11-20T06:33:47;94527.25;;;16.88;61.54
43711;BME280;29309;42.682;23.372;2022-11-20T06:36:14;94513.25;;;16.90;61.82
43711;BME280;29309;42.682;23.372;2022-11-20T06:38:41;94510.41;;;16.86;61.68
43711;BME280;29309;42.682;23.372;2022-11-20T06:41:10;94522.31;;;16.85;61.79
43711;BME280;29309;42.682;23.372;2022-11-20T06:43:35;94510.41;;;16.86;61.34
43711;BME280;29309;42.682;23.372;2022-11-20T06:46:01;94502.81;;;16.93;60.82
43711;BME280;29309;42.682;23.372;2022-11-20T06:48:27;94509.84;;;16.96;61.83
43711;BME280;29309;42.682;23.372;2022-11-20T06:50:53;94514.03;;;16.93;60.91
43711;BME280;29309;42.682;23.372;2022-11-20T06:53:19;94520.38;;;16.97;60.92
43711;BME280;29309;42.682;23.372;2022-11-20T06:55:45;94524.59;;;16.98;60.65
43711;BME280;29309;42.682;23.372;2022-11-20T06:58:12;94523.88;;;16.96;60.97
43711;BME280;29309;42.682;23.372;2022-11-20T07:00:38;94526.03;;;17.01;60.56
43711;BME280;29309;42.682;23.372;2022-11-20T07:03:05;94534.47;;;17.01;59.61
43711;BME280;29309;42.682;23.372;2022-11-20T07:05:30;94527.56;;;17.08;59.10
43711;BME280;29309;42.682;23.372;2022-11-20T07:07:56;94543.00;;;17.09;59.00
43711;BME280;29309;42.682;23.372;2022-11-20T07:10:22;94534.53;;;17.07;58.85
43711;BME280;29309;42.682;23.372;2022-11-20T07:12:52;94543.06;;;17.13;58.59
43711;BME280;29309;42.682;23.372;2022-11-20T07:15:19;94545.16;;;17.13;58.58
43711;BME280;29309;42.682;23.372;2022-11-20T07:17:45;94537.38;;;17.09;58.41
43711;BME280;29309;42.682;23.372;2022-11-20T07:20:11;94539.47;;;17.09;58.81
43711;BME280;29309;42.682;23.372;2022-11-20T07:22:37;94535.31;;;17.12;58.35
43711;BME280;29309;42.682;23.372;2022-11-20T07:25:04;94542.31;;;17.11;58.49
43711;BME280;29309;42.682;23.372;2022-11-20T07:27:30;94555.66;;;17.12;58.61
43711;BME280;29309;42.682;23.372;2022-11-20T07:29:56;94542.22;;;17.05;58.51
43711;BME280;29309;42.682;23.372;2022-11-20T07:32:22;94546.44;;;17.06;58.36
43711;BME280;29309;42.682;23.372;2022-11-20T07:34:47;94542.94;;;17.05;58.01
43711;BME280;29309;42.682;23.372;2022-11-20T07:37:13;94538.06;;;17.08;58.09
43711;BME280;29309;42.682;23.372;2022-11-20T07:39:39;94542.31;;;17.11;58.00
43711;BME280;29309;42.682;23.372;2022-11-20T07:42:06;94543.78;;;17.14;57.94
43711;BME280;29309;42.682;23.372;2022-11-20T07:44:31;94534.66;;;17.15;57.59
43711;BME280;29309;42.682;23.372;2022-11-20T07:46:57;94538.91;;;17.18;57.33
43711;BME280;29309;42.682;23.372;2022-11-20T07:49:22;94540.31;;;17.17;57.61
43711;BME280;29309;42.682;23.372;2022-11-20T07:51:50;94544.50;;;17.16;57.61
43711;BME280;29309;42.682;23.372;2022-11-20T07:54:16;94552.13;;;17.12;58.31
43711;BME280;29309;42.682;23.372;2022-11-20T07:56:41;94551.38;;;17.07;58.61
43711;BME280;29309;42.682;23.372;2022-11-20T07:59:07;94551.38;;;17.07;58.88
43711;BME280;29309;42.682;23.372;2022-11-20T08:01:32;94547.88;;;17.09;58.81
43711;BME280;29309;42.682;23.372;2022-11-20T08:04:01;94549.25;;;17.06;59.26
43711;BME280;29309;42.682;23.372;2022-11-20T08:06:26;94542.94;;;17.07;59.12
43711;BME280;29309;42.682;23.372;2022-11-20T08:08:51;94548.53;;;17.05;59.48
43711;BME280;29309;42.682;23.372;2022-11-20T08:11:17;94545.06;;;17.07;59.11
43711;BME280;29309;42.682;23.372;2022-11-20T08:14:01;94547.13;;;17.04;58.94
43711;BME280;29309;42.682;23.372;2022-11-20T08:16:43;94529.56;;;17.04;59.80
43711;BME280;29309;42.682;23.372;2022-11-20T08:19:10;94533.88;;;17.09;59.04
43711;BME280;29309;42.682;23.372;2022-11-20T08:21:35;94531.72;;;17.07;58.80
43711;BME280;29309;42.682;23.372;2022-11-20T08:24:01;94526.22;;;17.13;58.16
43711;BME280;29309;42.682;23.372;2022-11-20T08:26:26;94534.00;;;17.17;58.16
43711;BME280;29309;42.682;23.372;2022-11-20T08:28:56;94524.84;;;17.14;58.22
43711;BME280;29309;42.682;23.372;2022-11-20T08:31:23;94526.97;;;17.16;58.26
43711;BME280;29309;42.682;23.372;2022-11-20T08:33:49;94538.91;;;17.18;58.13
43711;BME280;29309;42.682;23.372;2022-11-20T08:36:15;94544.56;;;17.22;58.06
43711;BME280;29309;42.682;23.372;2022-11-20T08:38:41;94541.03;;;17.18;57.98
43711;BME280;29309;42.682;23.372;2022-11-20T08:41:06;94532.66;;;17.22;57.78
43711;BME280;29309;42.682;23.372;2022-11-20T08:43:56;94532.69;;;17.24;57.58
43711;BME280;29309;42.682;23.372;2022-11-20T08:46:23;94538.28;;;17.24;57.54
43711;BME280;29309;42.682;23.372;2022-11-20T08:48:49;94547.44;;;17.27;57.43
43711;BME280;29309;42.682;23.372;2022-11-20T08:51:15;94563.69;;;17.34;58.18
43711;BME280;29309;42.682;23.372;2022-11-20T08:53:41;94579.03;;;17.29;59.03
43711;BME280;29309;42.682;23.372;2022-11-20T08:56:07;94587.50;;;17.31;59.16
43711;BME280;29309;42.682;23.372;2022-11-20T08:58:33;94584.59;;;17.25;59.90
43711;BME280;29309;42.682;23.372;2022-11-20T09:00:58;94581.03;;;17.22;59.92
43711;BME280;29309;42.682;23.372;2022-11-20T09:03:24;94576.84;;;17.21;60.27
43711;BME280;29309;42.682;23.372;2022-11-20T09:05:59;94575.47;;;17.25;59.79
43711;BME280;29309;42.682;23.372;2022-11-20T09:08:26;94579.69;;;17.26;60.22
43711;BME280;29309;42.682;23.372;2022-11-20T09:10:52;94580.31;;;17.20;60.22
43711;BME280;29309;42.682;23.372;2022-11-20T09:13:18;94581.69;;;17.19;60.77
43711;BME280;29309;42.682;23.372;2022-11-20T09:15:44;94584.53;;;17.21;61.23
43711;BME280;29309;42.682;23.372;2022-11-20T09:18:09;94596.41;;;17.17;61.96
43711;BME280;29309;42.682;23.372;2022-11-20T09:20:35;94592.91;;;17.17;64.07
43711;BME280;29309;42.682;23.372;2022-11-20T09:23:00;94587.78;;;17.03;63.05
43711;BME280;29309;42.682;23.372;2022-11-20T09:25:26;94577.91;;;17.00;62.73
43711;BME280;29309;42.682;23.372;2022-11-20T09:27:56;94593.25;;;16.95;63.67
43711;BME280;29309;42.682;23.372;2022-11-20T09:30:21;94593.78;;;16.84;65.02
43711;BME280;29309;42.682;23.372;2022-11-20T09:32:46;94594.34;;;16.76;65.42
43711;BME280;29309;42.682;23.372;2022-11-20T09:35:12;94591.53;;;16.74;65.17
43711;BME280;29309;42.682;23.372;2022-11-20T09:37:38;94581.63;;;16.69;65.63
43711;BME280;29309;42.682;23.372;2022-11-20T09:40:04;94574.50;;;16.64;66.38
43711;BME280;29309;42.682;23.372;2022-11-20T09:47:54;94552.63;;;16.54;68.16
43711;BME280;29309;42.682;23.372;2022-11-20T09:50:34;94535.75;;;16.50;69.01
43711;BME280;29309;42.682;23.372;2022-11-20T09:53:12;94548.91;;;16.42;69.57
43711;BME280;29309;42.682;23.372;2022-11-20T09:55:39;94532.75;;;16.38;69.61
43711;BME280;29309;42.682;23.372;2022-11-20T09:58:16;94540.50;;;16.42;71.44
43711;BME280;29309;42.682;23.372;2022-11-20T10:00:44;94541.09;;;16.36;70.63
43711;BME280;29309;42.682;23.372;2022-11-20T10:03:39;94541.75;;;16.33;71.08
43711;BME280;29309;42.682;23.372;2022-11-20T10:06:12;94527.03;;;16.32;71.22
43711;BME280;29309;42.682;23.372;2022-11-20T10:14:44;94522.09;;;15.91;71.08
43711;BME280;29309;42.682;23.372;2022-11-20T10:17:13;94519.97;;;15.89;72.21
43711;BME280;29309;42.682;23.372;2022-11-20T10:25:42;94510.13;;;15.86;75.41
43711;BME280;29309;42.682;23.372;2022-11-20T10:30:57;94495.97;;;15.78;76.21
43711;BME280;29309;42.682;23.372;2022-11-20T10:33:26;94507.72;;;15.70;77.05
43711;BME280;29309;42.682;23.372;2022-11-20T10:38:45;94506.94;;;15.66;77.36
43711;BME280;29309;42.682;23.372;2022-11-20T10:41:19;94507.06;;;15.72;76.09
43711;BME280;29309;42.682;23.372;2022-11-20T10:44:27;94513.19;;;15.62;75.67
43711;BME280;29309;42.682;23.372;2022-11-20T10:47:16;94517.44;;;15.65;75.63
43711;BME280;29309;42.682;23.372;2022-11-20T10:49:43;94530.78;;;15.69;76.44
43711;BME280;29309;42.682;23.372;2022-11-20T11:00:23;94515.44;;;15.72;77.79
43711;BME280;29309;42.682;23.372;2022-11-20T11:02:51;94539.91;;;15.71;79.16
43711;BME280;29309;42.682;23.372;2022-11-20T11:07:47;94547.09;;;15.81;80.24
43711;BME280;29309;42.682;23.372;2022-11-20T11:10:18;94559.59;;;15.75;80.83
43711;BME280;29309;42.682;23.372;2022-11-20T11:12:46;94571.44;;;15.74;81.21
43711;BME280;29309;42.682;23.372;2022-11-20T11:15:40;94569.44;;;15.79;82.56
43711;BME280;29309;42.682;23.372;2022-11-20T11:18:11;94580.16;;;15.54;83.35
43711;BME280;29309;42.682;23.372;2022-11-20T11:20:37;94595.19;;;15.39;85.84
43711;BME280;29309;42.682;23.372;2022-11-20T11:23:05;94600.09;;;15.09;81.12
43711;BME280;29309;42.682;23.372;2022-11-20T11:25:38;94593.22;;;14.84;75.07
43711;BME280;29309;42.682;23.372;2022-11-20T11:30:43;94573.00;;;14.56;70.45
43711;BME280;29309;42.682;23.372;2022-11-20T11:33:20;94569.75;;;14.38;71.29
43711;BME280;29309;42.682;23.372;2022-11-20T11:35:48;94580.53;;;14.23;72.30
43711;BME280;29309;42.682;23.372;2022-11-20T11:38:17;94580.41;;;14.19;72.52
43711;BME280;29309;42.682;23.372;2022-11-20T11:40:46;94591.44;;;14.13;73.43
43711;BME280;29309;42.682;23.372;2022-11-20T11:43:32;94571.53;;;13.99;72.89
43711;BME280;29309;42.682;23.372;2022-11-20T11:49:08;94576.44;;;14.01;74.30
43711;BME280;29309;42.682;23.372;2022-11-20T11:57:23;94577.19;;;13.52;79.56
43711;BME280;29309;42.682;23.372;2022-11-20T12:00:00;94568.22;;;13.31;77.72
43711;BME280;29309;42.682;23.372;2022-11-20T12:05:25;94565.75;;;13.18;79.65
43711;BME280;29309;42.682;23.372;2022-11-20T12:08:17;94549.03;;;13.18;79.85
43711;BME280;29309;42.682;23.372;2022-11-20T12:11:06;94550.50;;;13.21;78.28
43711;BME280;29309;42.682;23.372;2022-11-20T12:16:00;94564.25;;;13.39;77.81
43711;BME280;29309;42.682;23.372;2022-11-20T12:18:27;94558.91;;;13.47;76.79
43711;BME280;29309;42.682;23.372;2022-11-20T12:23:35;94553.34;;;13.47;76.04
43711;BME280;29309;42.682;23.372;2022-11-20T12:26:19;94537.03;;;13.37;75.78
43711;BME280;29309;42.682;23.372;2022-11-20T12:29:01;94547.63;;;13.43;73.99
43711;BME280;29309;42.682;23.372;2022-11-20T12:37:30;94578.25;;;13.17;76.19
43711;BME280;29309;42.682;23.372;2022-11-20T12:40:28;94542.56;;;13.11;76.87
43711;BME280;29309;42.682;23.372;2022-11-20T12:43:22;94526.38;;;13.06;77.73
43711;BME280;29309;42.682;23.372;2022-11-20T12:51:29;94488.91;;;13.11;79.95
43711;BME280;29309;42.682;23.372;2022-11-20T12:54:23;94500.88;;;13.15;81.58
43711;BME280;29309;42.682;23.372;2022-11-20T13:02:40;94511.78;;;13.31;85.59
43711;BME280;29309;42.682;23.372;2022-11-20T13:08:33;94477.50;;;13.26;85.81
43711;BME280;29309;42.682;23.372;2022-11-20T13:11:34;94474.13;;;13.30;86.20
43711;BME280;29309;42.682;23.372;2022-11-20T13:19:18;94447.81;;;13.11;82.03
43711;BME280;29309;42.682;23.372;2022-11-20T13:21:48;94475.69;;;13.11;83.08
43711;BME280;29309;42.682;23.372;2022-11-20T13:26:43;94533.47;;;13.11;83.12
43711;BME280;29309;42.682;23.372;2022-11-20T13:29:12;94510.75;;;13.20;83.44
43711;BME280;29309;42.682;23.372;2022-11-20T13:31:44;94444.59;;;13.21;82.44
43711;BME280;29309;42.682;23.372;2022-11-20T13:34:33;94490.56;;;13.20;83.44
43711;BME280;29309;42.682;23.372;2022-11-20T13:36:59;94569.13;;;13.14;83.88
43711;BME280;29309;42.682;23.372;2022-11-20T13:39:34;94539.91;;;13.15;83.73
43711;BME280;29309;42.682;23.372;2022-11-20T13:44:43;94516.28;;;13.18;84.27
43711;BME280;29309;42.682;23.372;2022-11-20T13:47:28;94521.97;;;13.22;85.24
43711;BME280;29309;42.682;23.372;2022-11-20T13:49:58;94506.09;;;13.27;85.12
43711;BME280;29309;42.682;23.372;2022-11-20T14:01:09;94525.06;;;13.32;84.87
43711;BME280;29309;42.682;23.372;2022-11-20T14:03:35;94546.31;;;13.20;85.17
43711;BME280;29309;42.682;23.372;2022-11-20T14:06:04;94542.09;;;13.19;85.59
43711;BME280;29309;42.682;23.372;2022-11-20T14:08:38;94524.09;;;13.24;85.10
43711;BME280;29309;42.682;23.372;2022-11-20T14:11:24;94545.72;;;13.23;85.30
43711;BME280;29309;42.682;23.372;2022-11-20T14:13:54;94532.38;;;13.20;85.33
43711;BME280;29309;42.682;23.372;2022-11-20T14:16:20;94508.16;;;13.26;85.66
43711;BME280;29309;42.682;23.372;2022-11-20T14:18:46;94510.94;;;13.26;86.22
43711;BME280;29309;42.682;23.372;2022-11-20T14:21:21;94499.91;;;13.30;87.10
43711;BME280;29309;42.682;23.372;2022-11-20T14:23:47;94505.50;;;13.30;87.91
43711;BME280;29309;42.682;23.372;2022-11-20T14:26:14;94518.53;;;13.24;87.18
43711;BME280;29309;42.682;23.372;2022-11-20T14:28:48;94513.66;;;13.24;87.27
43711;BME280;29309;42.682;23.372;2022-11-20T14:31:21;94510.94;;;13.26;87.36
43711;BME280;29309;42.682;23.372;2022-11-20T14:33:47;94506.81;;;13.27;87.64